TimeMST,TemperatureF,Dew PointF,Humidity,Sea Level PressureIn,VisibilityMPH,Wind Direction,Wind SpeedMPH,Gust SpeedMPH,PrecipitationIn,Events,Conditions,WindDirDegrees,DateUTC
12:55 AM,30.0,30.0,100,30.09,0.2,Calm,Calm,-,N/A,Fog,Light Freezing Fog,0,2012-11-25 07:55:00
1:05 AM,30.2,30.2,100,30.01,0.5,Calm,Calm,-,N/A,Fog,Light Freezing Fog,0,2012-11-25 08:05:00
1:16 AM,30.2,30.2,100,30.01,0.2,Calm,Calm,-,N/A,Fog,Light Freezing Fog,0,2012-11-25 08:16:00
1:55 AM,30.0,30.0,100,30.08,0.2,Calm,Calm,-,N/A,Fog,Light Freezing Fog,0,2012-11-25 08:55:00
2:31 AM,30.2,30.2,100,30.02,0.5,Calm,Calm,-,N/A,Fog,Light Freezing Fog,0,2012-11-25 09:31:00
2:40 AM,30.2,30.2,100,30.02,1.5,Calm,Calm,-,N/A,,Overcast,0,2012-11-25 09:40:00
2:45 AM,30.2,28.4,93,30.02,3.0,Calm,Calm,-,N/A,,Overcast,0,2012-11-25 09:45:00
2:53 AM,30.2,28.4,93,30.02,1.8,Calm,Calm,-,N/A,,Overcast,0,2012-11-25 09:53:00
2:55 AM,30.0,28.9,96,30.09,1.5,Calm,Calm,-,N/A,,Overcast,0,2012-11-25 09:55:00
3:02 AM,30.2,28.4,93,30.02,1.0,Calm,Calm,-,N/A,,Overcast,0,2012-11-25 10:02:00
3:27 AM,30.2,30.2,100,30.03,2.0,Calm,Calm,-,N/A,,Overcast,0,2012-11-25 10:27:00
3:35 AM,30.2,30.2,100,30.02,7.0,Calm,Calm,-,N/A,,Overcast,0,2012-11-25 10:35:00
3:44 AM,30.2,30.2,100,30.02,1.8,Calm,Calm,-,N/A,,Overcast,0,2012-11-25 10:44:00
3:49 AM,30.2,30.2,100,30.02,0.8,Calm,Calm,-,N/A,,Overcast,0,2012-11-25 10:49:00
3:55 AM,30.0,30.0,100,30.09,0.8,Calm,Calm,-,N/A,,Overcast,0,2012-11-25 10:55:00
4:14 AM,30.2,30.2,100,30.02,1.2,Calm,Calm,-,N/A,,Overcast,0,2012-11-25 11:14:00
4:21 AM,30.2,30.2,100,30.02,1.8,Calm,Calm,-,N/A,,Overcast,0,2012-11-25 11:21:00
4:25 AM,30.2,30.2,100,30.01,3.0,East,3.5,-,N/A,,Overcast,80,2012-11-25 11:25:00
4:55 AM,30.0,30.0,100,30.09,7.0,SW,4.6,-,N/A,,Overcast,230,2012-11-25 11:55:00
5:53 AM,28.4,28.4,100,30.03,10.0,Calm,Calm,-,N/A,,Overcast,0,2012-11-25 12:53:00
5:55 AM,28.9,28.9,100,30.11,10.0,Calm,Calm,-,N/A,,Overcast,0,2012-11-25 12:55:00
6:55 AM,28.9,28.0,96,30.13,10.0,Calm,Calm,-,N/A,,Overcast,0,2012-11-25 13:55:00
7:55 AM,30.0,28.9,96,30.14,10.0,Calm,Calm,-,N/A,,Overcast,0,2012-11-25 14:55:00
8:55 AM,30.0,28.9,96,30.16,9.0,SW,3.5,-,0.00,,Overcast,220,2012-11-25 15:55:00
9:55 AM,30.9,28.0,89,30.19,10.0,Calm,Calm,-,0.00,,Overcast,0,2012-11-25 16:55:00
10:55 AM,30.9,28.9,92,30.20,10.0,Calm,Calm,-,N/A,,Mostly Cloudy,0,2012-11-25 17:55:00
11:55 AM,32.0,30.0,92,30.19,10.0,Calm,Calm,-,N/A,,Overcast,0,2012-11-25 18:55:00
12:55 PM,36.0,30.0,79,30.19,10.0,Calm,Calm,-,N/A,,Mostly Cloudy,0,2012-11-25 19:55:00
1:55 PM,37.0,27.0,67,30.19,10.0,Calm,Calm,-,N/A,,Mostly Cloudy,0,2012-11-25 20:55:00
2:55 PM,37.0,28.0,70,30.21,10.0,WNW,3.5,-,N/A,,Overcast,300,2012-11-25 21:55:00
3:55 PM,36.0,28.9,76,30.23,10.0,Calm,Calm,-,N/A,,Mostly Cloudy,0,2012-11-25 22:55:00
4:55 PM,33.1,28.0,82,30.26,10.0,Calm,Calm,-,N/A,,Mostly Cloudy,0,2012-11-25 23:55:00
5:55 PM,28.9,28.0,96,30.28,10.0,SSW,3.5,-,N/A,,Scattered Clouds,200,2012-11-26 00:55:00
6:55 PM,28.0,26.1,92,30.30,10.0,Calm,Calm,-,N/A,,Partly Cloudy,0,2012-11-26 01:55:00
7:55 PM,25.0,24.1,96,30.31,10.0,Calm,Calm,-,N/A,,Clear,0,2012-11-26 02:55:00
8:55 PM,23.0,21.9,96,30.34,10.0,Calm,Calm,-,N/A,,Clear,0,2012-11-26 03:55:00
9:55 PM,24.1,23.0,96,30.35,9.0,Calm,Calm,-,N/A,,Mostly Cloudy,0,2012-11-26 04:55:00
10:55 PM,25.0,23.0,92,30.35,10.0,Calm,Calm,-,N/A,,Overcast,0,2012-11-26 05:55:00
11:55 PM,23.0,21.0,92,30.37,10.0,Calm,Calm,-,N/A,,Mostly Cloudy,0,2012-11-26 06:55:00